sensor_id;sensor_type;location;lat;lon;timestamp;P1;durP1;ratioP1;P2;durP2;ratioP2
11245;SDS011;59870;50.106;8.580;2023-08-12T00:02:16;5.70;;;5.30;;
11245;SDS011;59870;50.106;8.580;2023-08-12T00:04:45;5.67;;;5.33;;
11245;SDS011;59870;50.106;8.580;2023-08-12T00:07:12;6.07;;;5.70;;
11245;SDS011;59870;50.106;8.580;2023-08-12T00:09:40;6.50;;;5.90;;
11245;SDS011;59870;50.106;8.580;2023-08-12T00:12:07;5.63;;;5.30;;
11245;SDS011;59870;50.106;8.580;2023-08-12T00:14:35;6.13;;;5.77;;
11245;SDS011;59870;50.106;8.580;2023-08-12T00:17:02;6.43;;;6.03;;
11245;SDS011;59870;50.106;8.580;2023-08-12T00:19:30;6.23;;;5.83;;
11245;SDS011;59870;50.106;8.580;2023-08-12T00:21:57;6.37;;;5.97;;
11245;SDS011;59870;50.106;8.580;2023-08-12T00:24:24;6.87;;;6.17;;
11245;SDS011;59870;50.106;8.580;2023-08-12T00:26:52;6.30;;;5.80;;
11245;SDS011;59870;50.106;8.580;2023-08-12T00:29:19;6.80;;;5.90;;
11245;SDS011;59870;50.106;8.580;2023-08-12T00:31:47;5.60;;;5.20;;
11245;SDS011;59870;50.106;8.580;2023-08-12T00:34:15;6.50;;;5.90;;
11245;SDS011;59870;50.106;8.580;2023-08-12T00:36:43;6.20;;;5.80;;
11245;SDS011;59870;50.106;8.580;2023-08-12T00:39:11;6.70;;;5.53;;
11245;SDS011;59870;50.106;8.580;2023-08-12T00:41:39;6.30;;;5.80;;
11245;SDS011;59870;50.106;8.580;2023-08-12T00:44:06;6.00;;;5.53;;
11245;SDS011;59870;50.106;8.580;2023-08-12T00:46:34;5.20;;;4.90;;
11245;SDS011;59870;50.106;8.580;2023-08-12T00:49:03;5.30;;;5.00;;
11245;SDS011;59870;50.106;8.580;2023-08-12T00:51:31;6.97;;;6.37;;
11245;SDS011;59870;50.106;8.580;2023-08-12T00:54:05;6.53;;;6.03;;
11245;SDS011;59870;50.106;8.580;2023-08-12T00:56:35;6.70;;;5.50;;
11245;SDS011;59870;50.106;8.580;2023-08-12T00:59:04;6.20;;;5.60;;
11245;SDS011;59870;50.106;8.580;2023-08-12T01:01:33;6.50;;;6.00;;
11245;SDS011;59870;50.106;8.580;2023-08-12T01:04:02;8.33;;;6.07;;
11245;SDS011;59870;50.106;8.580;2023-08-12T01:06:30;6.03;;;5.53;;
11245;SDS011;59870;50.106;8.580;2023-08-12T01:08:58;6.53;;;6.13;;
11245;SDS011;59870;50.106;8.580;2023-08-12T01:11:28;6.23;;;5.63;;
11245;SDS011;59870;50.106;8.580;2023-08-12T01:15:07;6.50;;;6.00;;
11245;SDS011;59870;50.106;8.580;2023-08-12T01:17:06;7.47;;;5.90;;
11245;SDS011;59870;50.106;8.580;2023-08-12T01:19:39;6.70;;;6.20;;
11245;SDS011;59870;50.106;8.580;2023-08-12T01:22:08;7.40;;;5.90;;
11245;SDS011;59870;50.106;8.580;2023-08-12T01:24:38;6.50;;;6.03;;
11245;SDS011;59870;50.106;8.580;2023-08-12T01:27:08;6.47;;;5.83;;
11245;SDS011;59870;50.106;8.580;2023-08-12T01:29:38;6.50;;;5.93;;
11245;SDS011;59870;50.106;8.580;2023-08-12T01:32:18;7.73;;;6.17;;
11245;SDS011;59870;50.106;8.580;2023-08-12T01:34:53;5.70;;;5.17;;
11245;SDS011;59870;50.106;8.580;2023-08-12T01:37:31;6.10;;;5.70;;
11245;SDS011;59870;50.106;8.580;2023-08-12T01:40:01;6.33;;;5.83;;
11245;SDS011;59870;50.106;8.580;2023-08-12T01:42:32;6.47;;;5.90;;
11245;SDS011;59870;50.106;8.580;2023-08-12T01:45:01;5.70;;;5.37;;
11245;SDS011;59870;50.106;8.580;2023-08-12T01:47:30;6.47;;;5.97;;
11245;SDS011;59870;50.106;8.580;2023-08-12T01:49:59;6.23;;;5.83;;
11245;SDS011;59870;50.106;8.580;2023-08-12T01:52:26;5.83;;;5.33;;
11245;SDS011;59870;50.106;8.580;2023-08-12T01:54:54;5.83;;;5.10;;
11245;SDS011;59870;50.106;8.580;2023-08-12T01:57:22;6.10;;;5.70;;
11245;SDS011;59870;50.106;8.580;2023-08-12T01:59:49;6.87;;;6.37;;
11245;SDS011;59870;50.106;8.580;2023-08-12T02:02:18;6.63;;;6.07;;
11245;SDS011;59870;50.106;8.580;2023-08-12T02:04:46;6.40;;;6.07;;
11245;SDS011;59870;50.106;8.580;2023-08-12T02:07:13;6.87;;;6.20;;
11245;SDS011;59870;50.106;8.580;2023-08-12T02:09:41;7.60;;;5.90;;
11245;SDS011;59870;50.106;8.580;2023-08-12T02:12:08;6.47;;;5.83;;
11245;SDS011;59870;50.106;8.580;2023-08-12T02:14:35;6.27;;;5.87;;
11245;SDS011;59870;50.106;8.580;2023-08-12T02:17:03;5.90;;;5.60;;
11245;SDS011;59870;50.106;8.580;2023-08-12T02:19:34;6.03;;;5.53;;
11245;SDS011;59870;50.106;8.580;2023-08-12T02:22:01;6.13;;;5.37;;
11245;SDS011;59870;50.106;8.580;2023-08-12T02:24:30;5.80;;;5.40;;
11245;SDS011;59870;50.106;8.580;2023-08-12T02:26:58;6.27;;;5.77;;
11245;SDS011;59870;50.106;8.580;2023-08-12T02:29:26;6.37;;;5.87;;
11245;SDS011;59870;50.106;8.580;2023-08-12T02:31:53;5.67;;;5.27;;
11245;SDS011;59870;50.106;8.580;2023-08-12T02:34:21;6.13;;;5.73;;
11245;SDS011;59870;50.106;8.580;2023-08-12T02:36:51;5.93;;;5.53;;
11245;SDS011;59870;50.106;8.580;2023-08-12T02:39:18;6.33;;;5.80;;
11245;SDS011;59870;50.106;8.580;2023-08-12T02:41:46;5.23;;;4.93;;
11245;SDS011;59870;50.106;8.580;2023-08-12T02:44:14;5.97;;;5.57;;
11245;SDS011;59870;50.106;8.580;2023-08-12T02:46:41;5.80;;;5.23;;
11245;SDS011;59870;50.106;8.580;2023-08-12T02:49:09;6.30;;;5.80;;
11245;SDS011;59870;50.106;8.580;2023-08-12T02:51:36;6.43;;;5.93;;
11245;SDS011;59870;50.106;8.580;2023-08-12T02:54:04;8.73;;;5.83;;
11245;SDS011;59870;50.106;8.580;2023-08-12T02:56:32;6.93;;;6.33;;
11245;SDS011;59870;50.106;8.580;2023-08-12T02:58:59;6.27;;;5.77;;
11245;SDS011;59870;50.106;8.580;2023-08-12T03:01:26;6.20;;;5.70;;
11245;SDS011;59870;50.106;8.580;2023-08-12T03:03:54;7.30;;;6.60;;
11245;SDS011;59870;50.106;8.580;2023-08-12T03:06:22;6.37;;;5.87;;
11245;SDS011;59870;50.106;8.580;2023-08-12T03:08:50;6.60;;;6.10;;
11245;SDS011;59870;50.106;8.580;2023-08-12T03:11:17;7.10;;;6.57;;
11245;SDS011;59870;50.106;8.580;2023-08-12T03:13:46;6.87;;;6.27;;
11245;SDS011;59870;50.106;8.580;2023-08-12T03:16:14;6.80;;;6.33;;
11245;SDS011;59870;50.106;8.580;2023-08-12T03:18:45;7.47;;;6.83;;
11245;SDS011;59870;50.106;8.580;2023-08-12T03:21:12;6.33;;;5.87;;
11245;SDS011;59870;50.106;8.580;2023-08-12T03:23:40;8.70;;;6.60;;
11245;SDS011;59870;50.106;8.580;2023-08-12T03:26:09;8.50;;;6.43;;
11245;SDS011;59870;50.106;8.580;2023-08-12T03:28:36;7.33;;;6.27;;
11245;SDS011;59870;50.106;8.580;2023-08-12T03:31:04;6.87;;;6.27;;
11245;SDS011;59870;50.106;8.580;2023-08-12T03:33:32;7.63;;;6.77;;
11245;SDS011;59870;50.106;8.580;2023-08-12T03:36:01;8.07;;;7.27;;
11245;SDS011;59870;50.106;8.580;2023-08-12T03:38:29;7.67;;;7.17;;
11245;SDS011;59870;50.106;8.580;2023-08-12T03:40:57;7.80;;;7.30;;
11245;SDS011;59870;50.106;8.580;2023-08-12T03:43:25;9.03;;;7.17;;
11245;SDS011;59870;50.106;8.580;2023-08-12T03:45:53;8.07;;;7.30;;
11245;SDS011;59870;50.106;8.580;2023-08-12T03:48:21;7.60;;;7.10;;
11245;SDS011;59870;50.106;8.580;2023-08-12T03:50:48;7.80;;;7.30;;
11245;SDS011;59870;50.106;8.580;2023-08-12T03:53:16;8.50;;;7.63;;
11245;SDS011;59870;50.106;8.580;2023-08-12T03:55:45;7.63;;;7.03;;
11245;SDS011;59870;50.106;8.580;2023-08-12T03:58:15;7.47;;;6.87;;
11245;SDS011;59870;50.106;8.580;2023-08-12T04:00:44;8.13;;;7.37;;
11245;SDS011;59870;50.106;8.580;2023-08-12T04:03:14;7.53;;;6.93;;
11245;SDS011;59870;50.106;8.580;2023-08-12T04:05:48;8.27;;;7.67;;
11245;SDS011;59870;50.106;8.580;2023-08-12T04:08:20;7.80;;;7.20;;
11245;SDS011;59870;50.106;8.580;2023-08-12T04:10:50;8.90;;;6.93;;
11245;SDS011;59870;50.106;8.580;2023-08-12T04:13:18;8.07;;;6.97;;
11245;SDS011;59870;50.106;8.580;2023-08-12T04:15:48;7.53;;;6.93;;
11245;SDS011;59870;50.106;8.580;2023-08-12T04:18:17;6.93;;;6.53;;
11245;SDS011;59870;50.106;8.580;2023-08-12T04:20:46;7.37;;;6.67;;
11245;SDS011;59870;50.106;8.580;2023-08-12T04:23:15;7.60;;;6.90;;
11245;SDS011;59870;50.106;8.580;2023-08-12T04:25:43;6.67;;;6.27;;
11245;SDS011;59870;50.106;8.580;2023-08-12T04:28:13;6.47;;;5.97;;
11245;SDS011;59870;50.106;8.580;2023-08-12T04:30:41;6.63;;;6.13;;
11245;SDS011;59870;50.106;8.580;2023-08-12T04:33:09;6.90;;;6.30;;
11245;SDS011;59870;50.106;8.580;2023-08-12T04:35:38;6.80;;;6.30;;
11245;SDS011;59870;50.106;8.580;2023-08-12T04:38:06;7.53;;;6.83;;
11245;SDS011;59870;50.106;8.580;2023-08-12T04:40:37;7.60;;;6.93;;
11245;SDS011;59870;50.106;8.580;2023-08-12T04:43:10;8.03;;;7.43;;
11245;SDS011;59870;50.106;8.580;2023-08-12T04:45:38;7.07;;;6.43;;
11245;SDS011;59870;50.106;8.580;2023-08-12T04:48:07;7.70;;;6.97;;
11245;SDS011;59870;50.106;8.580;2023-08-12T04:50:35;7.50;;;6.80;;
11245;SDS011;59870;50.106;8.580;2023-08-12T04:53:03;7.60;;;7.10;;
11245;SDS011;59870;50.106;8.580;2023-08-12T04:55:31;7.80;;;7.20;;
11245;SDS011;59870;50.106;8.580;2023-08-12T04:58:01;7.80;;;6.87;;
11245;SDS011;59870;50.106;8.580;2023-08-12T05:00:30;8.43;;;7.63;;
11245;SDS011;59870;50.106;8.580;2023-08-12T05:02:58;7.03;;;6.37;;
11245;SDS011;59870;50.106;8.580;2023-08-12T05:05:26;7.70;;;7.10;;
11245;SDS011;59870;50.106;8.580;2023-08-12T05:07:54;8.00;;;7.47;;
11245;SDS011;59870;50.106;8.580;2023-08-12T05:10:22;8.53;;;7.73;;
11245;SDS011;59870;50.106;8.580;2023-08-12T05:12:50;7.53;;;7.03;;
11245;SDS011;59870;50.106;8.580;2023-08-12T05:15:21;9.00;;;8.27;;
11245;SDS011;59870;50.106;8.580;2023-08-12T05:17:49;8.40;;;7.80;;
11245;SDS011;59870;50.106;8.580;2023-08-12T05:20:20;8.30;;;7.73;;
11245;SDS011;59870;50.106;8.580;2023-08-12T05:22:48;9.00;;;8.20;;
11245;SDS011;59870;50.106;8.580;2023-08-12T05:25:15;8.30;;;7.60;;
11245;SDS011;59870;50.106;8.580;2023-08-12T05:27:43;8.70;;;8.10;;
11245;SDS011;59870;50.106;8.580;2023-08-12T05:30:11;9.17;;;8.30;;
11245;SDS011;59870;50.106;8.580;2023-08-12T05:32:38;8.57;;;7.77;;
11245;SDS011;59870;50.106;8.580;2023-08-12T05:35:06;10.07;;;9.03;;
11245;SDS011;59870;50.106;8.580;2023-08-12T05:37:34;9.30;;;8.50;;
11245;SDS011;59870;50.106;8.580;2023-08-12T05:40:01;10.57;;;9.03;;
11245;SDS011;59870;50.106;8.580;2023-08-12T05:42:31;9.33;;;8.43;;
11245;SDS011;59870;50.106;8.580;2023-08-12T05:44:58;9.53;;;8.80;;
11245;SDS011;59870;50.106;8.580;2023-08-12T05:47:26;16.93;;;8.73;;
11245;SDS011;59870;50.106;8.580;2023-08-12T05:49:54;9.80;;;8.97;;
11245;SDS011;59870;50.106;8.580;2023-08-12T05:52:21;9.93;;;9.13;;
11245;SDS011;59870;50.106;8.580;2023-08-12T05:54:48;9.47;;;8.70;;
11245;SDS011;59870;50.106;8.580;2023-08-12T05:57:16;9.80;;;9.10;;
11245;SDS011;59870;50.106;8.580;2023-08-12T05:59:43;9.77;;;9.07;;
11245;SDS011;59870;50.106;8.580;2023-08-12T06:02:11;9.37;;;8.60;;
11245;SDS011;59870;50.106;8.580;2023-08-12T06:04:38;11.17;;;7.90;;
11245;SDS011;59870;50.106;8.580;2023-08-12T06:07:06;8.60;;;7.70;;
11245;SDS011;59870;50.106;8.580;2023-08-12T06:09:33;8.33;;;7.63;;
11245;SDS011;59870;50.106;8.580;2023-08-12T06:12:01;8.73;;;7.83;;
11245;SDS011;59870;50.106;8.580;2023-08-12T06:14:28;9.83;;;7.40;;
11245;SDS011;59870;50.106;8.580;2023-08-12T06:16:56;8.30;;;7.60;;
11245;SDS011;59870;50.106;8.580;2023-08-12T06:19:25;8.47;;;7.87;;
11245;SDS011;59870;50.106;8.580;2023-08-12T06:21:52;7.67;;;7.10;;
11245;SDS011;59870;50.106;8.580;2023-08-12T06:24:20;7.60;;;7.10;;
11245;SDS011;59870;50.106;8.580;2023-08-12T06:26:47;8.17;;;7.57;;
11245;SDS011;59870;50.106;8.580;2023-08-12T06:29:15;7.33;;;6.83;;
11245;SDS011;59870;50.106;8.580;2023-08-12T06:31:43;7.93;;;7.40;;
11245;SDS011;59870;50.106;8.580;2023-08-12T06:34:10;8.20;;;7.50;;
11245;SDS011;59870;50.106;8.580;2023-08-12T06:36:38;7.37;;;6.70;;
11245;SDS011;59870;50.106;8.580;2023-08-12T06:39:05;8.20;;;7.50;;
11245;SDS011;59870;50.106;8.580;2023-08-12T06:41:33;8.63;;;8.03;;
11245;SDS011;59870;50.106;8.580;2023-08-12T06:44:01;7.77;;;7.23;;
11245;SDS011;59870;50.106;8.580;2023-08-12T06:46:28;7.67;;;6.97;;
11245;SDS011;59870;50.106;8.580;2023-08-12T06:48:58;8.60;;;7.90;;
11245;SDS011;59870;50.106;8.580;2023-08-12T06:51:26;7.77;;;7.17;;
11245;SDS011;59870;50.106;8.580;2023-08-12T06:53:54;8.73;;;8.00;;
11245;SDS011;59870;50.106;8.580;2023-08-12T06:56:22;7.80;;;7.37;;
11245;SDS011;59870;50.106;8.580;2023-08-12T06:58:49;8.63;;;8.07;;
11245;SDS011;59870;50.106;8.580;2023-08-12T07:01:17;8.30;;;7.67;;
11245;SDS011;59870;50.106;8.580;2023-08-12T07:03:44;8.90;;;8.30;;
11245;SDS011;59870;50.106;8.580;2023-08-12T07:06:12;8.83;;;8.07;;
11245;SDS011;59870;50.106;8.580;2023-08-12T07:08:40;9.30;;;8.40;;
11245;SDS011;59870;50.106;8.580;2023-08-12T07:11:08;9.07;;;8.37;;
11245;SDS011;59870;50.106;8.580;2023-08-12T07:13:36;8.13;;;7.47;;
11245;SDS011;59870;50.106;8.580;2023-08-12T07:16:04;9.03;;;7.37;;
11245;SDS011;59870;50.106;8.580;2023-08-12T07:18:32;9.23;;;8.43;;
11245;SDS011;59870;50.106;8.580;2023-08-12T07:21:00;8.37;;;7.83;;
11245;SDS011;59870;50.106;8.580;2023-08-12T07:23:28;8.33;;;7.60;;
11245;SDS011;59870;50.106;8.580;2023-08-12T07:25:55;9.27;;;8.53;;
11245;SDS011;59870;50.106;8.580;2023-08-12T07:28:23;10.07;;;9.30;;
11245;SDS011;59870;50.106;8.580;2023-08-12T07:30:50;9.53;;;8.57;;
11245;SDS011;59870;50.106;8.580;2023-08-12T07:33:19;7.63;;;6.90;;
11245;SDS011;59870;50.106;8.580;2023-08-12T07:35:50;8.50;;;7.90;;
11245;SDS011;59870;50.106;8.580;2023-08-12T07:38:18;10.27;;;9.48;;
11245;SDS011;59870;50.106;8.580;2023-08-12T07:40:45;9.53;;;8.83;;
11245;SDS011;59870;50.106;8.580;2023-08-12T07:43:13;8.23;;;7.57;;
11245;SDS011;59870;50.106;8.580;2023-08-12T07:45:41;8.93;;;8.33;;
11245;SDS011;59870;50.106;8.580;2023-08-12T07:48:17;8.50;;;8.00;;
11245;SDS011;59870;50.106;8.580;2023-08-12T07:50:54;7.60;;;7.10;;
11245;SDS011;59870;50.106;8.580;2023-08-12T07:53:27;9.00;;;8.30;;
11245;SDS011;59870;50.106;8.580;2023-08-12T07:55:54;8.90;;;8.13;;
11245;SDS011;59870;50.106;8.580;2023-08-12T07:58:22;9.07;;;8.48;;
11245;SDS011;59870;50.106;8.580;2023-08-12T08:00:52;9.18;;;8.27;;
11245;SDS011;59870;50.106;8.580;2023-08-12T08:03:21;7.37;;;6.87;;
11245;SDS011;59870;50.106;8.580;2023-08-12T08:05:48;9.00;;;8.23;;
11245;SDS011;59870;50.106;8.580;2023-08-12T08:08:16;8.60;;;8.00;;
11245;SDS011;59870;50.106;8.580;2023-08-12T08:10:45;9.35;;;8.55;;
11245;SDS011;59870;50.106;8.580;2023-08-12T08:13:12;9.30;;;8.60;;
11245;SDS011;59870;50.106;8.580;2023-08-12T08:15:40;9.00;;;8.30;;
11245;SDS011;59870;50.106;8.580;2023-08-12T08:18:07;8.32;;;7.80;;
11245;SDS011;59870;50.106;8.580;2023-08-12T08:20:35;9.40;;;8.75;;
11245;SDS011;59870;50.106;8.580;2023-08-12T08:23:03;9.05;;;8.27;;
11245;SDS011;59870;50.106;8.580;2023-08-12T08:25:30;9.80;;;9.00;;
11245;SDS011;59870;50.106;8.580;2023-08-12T08:27:58;7.78;;;7.30;;
11245;SDS011;59870;50.106;8.580;2023-08-12T08:30:27;8.98;;;8.38;;
11245;SDS011;59870;50.106;8.580;2023-08-12T08:32:55;9.15;;;8.30;;
11245;SDS011;59870;50.106;8.580;2023-08-12T08:35:22;9.48;;;8.63;;
11245;SDS011;59870;50.106;8.580;2023-08-12T08:37:50;8.45;;;7.95;;
11245;SDS011;59870;50.106;8.580;2023-08-12T08:40:18;8.03;;;7.23;;
11245;SDS011;59870;50.106;8.580;2023-08-12T08:42:49;8.52;;;8.02;;
11245;SDS011;59870;50.106;8.580;2023-08-12T08:45:22;8.20;;;7.53;;
11245;SDS011;59870;50.106;8.580;2023-08-12T08:47:51;8.73;;;7.95;;
11245;SDS011;59870;50.106;8.580;2023-08-12T08:50:20;9.63;;;8.82;;
11245;SDS011;59870;50.106;8.580;2023-08-12T08:52:50;7.93;;;7.20;;
11245;SDS011;59870;50.106;8.580;2023-08-12T08:55:19;8.52;;;7.80;;
11245;SDS011;59870;50.106;8.580;2023-08-12T08:57:50;13.05;;;7.75;;
11245;SDS011;59870;50.106;8.580;2023-08-12T09:00:19;7.10;;;6.65;;
11245;SDS011;59870;50.106;8.580;2023-08-12T09:02:51;8.90;;;8.23;;
11245;SDS011;59870;50.106;8.580;2023-08-12T09:05:24;7.85;;;7.25;;
11245;SDS011;59870;50.106;8.580;2023-08-12T09:07:54;6.72;;;6.07;;
11245;SDS011;59870;50.106;8.580;2023-08-12T09:10:22;7.85;;;7.28;;
11245;SDS011;59870;50.106;8.580;2023-08-12T09:12:56;6.72;;;6.32;;
11245;SDS011;59870;50.106;8.580;2023-08-12T09:15:24;6.15;;;5.75;;
11245;SDS011;59870;50.106;8.580;2023-08-12T09:17:54;5.47;;;5.07;;
11245;SDS011;59870;50.106;8.580;2023-08-12T09:20:21;5.97;;;5.32;;
11245;SDS011;59870;50.106;8.580;2023-08-12T09:22:57;5.68;;;5.28;;
11245;SDS011;59870;50.106;8.580;2023-08-12T09:25:27;5.80;;;5.50;;
11245;SDS011;59870;50.106;8.580;2023-08-12T09:27:58;6.22;;;5.13;;
11245;SDS011;59870;50.106;8.580;2023-08-12T09:30:30;6.78;;;6.35;;
11245;SDS011;59870;50.106;8.580;2023-08-12T09:33:00;5.85;;;5.40;;
11245;SDS011;59870;50.106;8.580;2023-08-12T09:35:37;6.40;;;6.10;;
11245;SDS011;59870;50.106;8.580;2023-08-12T09:38:12;7.15;;;6.50;;
11245;SDS011;59870;50.106;8.580;2023-08-12T09:40:40;7.05;;;6.53;;
11245;SDS011;59870;50.106;8.580;2023-08-12T09:43:09;6.78;;;6.00;;
11245;SDS011;59870;50.106;8.580;2023-08-12T09:45:39;6.85;;;6.35;;
11245;SDS011;59870;50.106;8.580;2023-08-12T09:48:07;6.38;;;5.97;;
11245;SDS011;59870;50.106;8.580;2023-08-12T09:50:37;6.70;;;6.30;;
11245;SDS011;59870;50.106;8.580;2023-08-12T09:53:05;6.55;;;6.07;;
11245;SDS011;59870;50.106;8.580;2023-08-12T09:55:32;6.43;;;6.03;;
11245;SDS011;59870;50.106;8.580;2023-08-12T09:58:02;6.07;;;5.40;;
11245;SDS011;59870;50.106;8.580;2023-08-12T10:00:33;5.80;;;5.47;;
11245;SDS011;59870;50.106;8.580;2023-08-12T10:03:01;5.22;;;4.75;;
11245;SDS011;59870;50.106;8.580;2023-08-12T10:05:32;6.28;;;5.93;;
11245;SDS011;59870;50.106;8.580;2023-08-12T10:08:01;5.97;;;5.50;;
11245;SDS011;59870;50.106;8.580;2023-08-12T10:10:32;6.95;;;5.75;;
11245;SDS011;59870;50.106;8.580;2023-08-12T10:13:01;6.03;;;5.70;;
11245;SDS011;59870;50.106;8.580;2023-08-12T10:15:30;4.53;;;4.32;;
11245;SDS011;59870;50.106;8.580;2023-08-12T10:17:58;4.87;;;4.57;;
11245;SDS011;59870;50.106;8.580;2023-08-12T10:20:26;4.33;;;4.03;;
11245;SDS011;59870;50.106;8.580;2023-08-12T10:22:57;5.03;;;4.72;;
11245;SDS011;59870;50.106;8.580;2023-08-12T10:25:30;5.38;;;5.00;;
11245;SDS011;59870;50.106;8.580;2023-08-12T10:28:00;6.68;;;5.78;;
11245;SDS011;59870;50.106;8.580;2023-08-12T10:30:28;6.50;;;5.97;;
11245;SDS011;59870;50.106;8.580;2023-08-12T10:32:58;6.78;;;6.22;;
11245;SDS011;59870;50.106;8.580;2023-08-12T10:38:24;5.65;;;5.35;;
11245;SDS011;59870;50.106;8.580;2023-08-12T10:41:18;6.18;;;5.75;;
11245;SDS011;59870;50.106;8.580;2023-08-12T10:44:05;6.03;;;5.53;;
11245;SDS011;59870;50.106;8.580;2023-08-12T10:49:38;5.40;;;5.00;;
11245;SDS011;59870;50.106;8.580;2023-08-12T10:52:28;5.30;;;4.90;;
11245;SDS011;59870;50.106;8.580;2023-08-12T10:55:21;5.20;;;4.80;;
11245;SDS011;59870;50.106;8.580;2023-08-12T10:57:54;5.37;;;4.97;;
11245;SDS011;59870;50.106;8.580;2023-08-12T11:00:28;6.67;;;6.27;;
11245;SDS011;59870;50.106;8.580;2023-08-12T11:03:03;6.03;;;5.63;;
11245;SDS011;59870;50.106;8.580;2023-08-12T11:05:36;6.13;;;5.67;;
11245;SDS011;59870;50.106;8.580;2023-08-12T11:08:05;5.40;;;5.00;;
11245;SDS011;59870;50.106;8.580;2023-08-12T11:10:38;5.93;;;5.37;;
11245;SDS011;59870;50.106;8.580;2023-08-12T11:13:06;6.27;;;5.67;;
11245;SDS011;59870;50.106;8.580;2023-08-12T11:15:37;6.17;;;5.67;;
11245;SDS011;59870;50.106;8.580;2023-08-12T11:21:08;7.00;;;6.30;;
11245;SDS011;59870;50.106;8.580;2023-08-12T11:23:36;5.87;;;5.53;;
11245;SDS011;59870;50.106;8.580;2023-08-12T11:26:05;6.30;;;5.20;;
11245;SDS011;59870;50.106;8.580;2023-08-12T11:28:34;5.43;;;4.93;;
11245;SDS011;59870;50.106;8.580;2023-08-12T11:31:04;5.73;;;5.23;;
11245;SDS011;59870;50.106;8.580;2023-08-12T11:33:32;4.33;;;4.03;;
11245;SDS011;59870;50.106;8.580;2023-08-12T11:36:00;4.93;;;4.63;;
11245;SDS011;59870;50.106;8.580;2023-08-12T11:38:28;10.10;;;4.70;;
11245;SDS011;59870;50.106;8.580;2023-08-12T11:41:02;5.23;;;4.83;;
11245;SDS011;59870;50.106;8.580;2023-08-12T11:43:33;4.70;;;4.30;;
11245;SDS011;59870;50.106;8.580;2023-08-12T11:46:04;4.97;;;4.50;;
11245;SDS011;59870;50.106;8.580;2023-08-12T11:48:32;4.07;;;3.87;;
11245;SDS011;59870;50.106;8.580;2023-08-12T11:50:59;5.90;;;5.10;;
11245;SDS011;59870;50.106;8.580;2023-08-12T11:53:27;5.30;;;5.00;;
11245;SDS011;59870;50.106;8.580;2023-08-12T11:55:55;5.67;;;5.20;;
11245;SDS011;59870;50.106;8.580;2023-08-12T11:58:23;9.20;;;4.97;;
11245;SDS011;59870;50.106;8.580;2023-08-12T12:00:52;5.03;;;4.73;;
11245;SDS011;59870;50.106;8.580;2023-08-12T12:03:19;5.40;;;5.00;;
11245;SDS011;59870;50.106;8.580;2023-08-12T12:05:55;4.80;;;4.50;;
11245;SDS011;59870;50.106;8.580;2023-08-12T12:08:30;5.63;;;5.23;;
11245;SDS011;59870;50.106;8.580;2023-08-12T12:11:05;6.00;;;5.47;;
11245;SDS011;59870;50.106;8.580;2023-08-12T12:13:34;7.40;;;5.17;;
11245;SDS011;59870;50.106;8.580;2023-08-12T12:16:01;6.30;;;5.70;;
11245;SDS011;59870;50.106;8.580;2023-08-12T12:18:33;6.27;;;5.77;;
11245;SDS011;59870;50.106;8.580;2023-08-12T12:21:03;6.17;;;5.70;;
11245;SDS011;59870;50.106;8.580;2023-08-12T12:23:31;6.13;;;5.73;;
11245;SDS011;59870;50.106;8.580;2023-08-12T12:26:02;6.03;;;5.40;;
11245;SDS011;59870;50.106;8.580;2023-08-12T12:28:31;6.60;;;6.03;;
11245;SDS011;59870;50.106;8.580;2023-08-12T12:30:59;6.10;;;5.37;;
11245;SDS011;59870;50.106;8.580;2023-08-12T12:33:29;5.53;;;5.20;;
11245;SDS011;59870;50.106;8.580;2023-08-12T12:35:57;5.40;;;4.90;;
11245;SDS011;59870;50.106;8.580;2023-08-12T12:38:29;5.50;;;5.00;;
11245;SDS011;59870;50.106;8.580;2023-08-12T12:40:57;5.03;;;4.73;;
11245;SDS011;59870;50.106;8.580;2023-08-12T12:43:25;5.10;;;4.70;;
11245;SDS011;59870;50.106;8.580;2023-08-12T12:45:53;4.40;;;4.10;;
11245;SDS011;59870;50.106;8.580;2023-08-12T12:48:21;5.00;;;4.60;;
11245;SDS011;59870;50.106;8.580;2023-08-12T12:50:49;4.40;;;4.10;;
11245;SDS011;59870;50.106;8.580;2023-08-12T12:53:21;4.20;;;4.00;;
11245;SDS011;59870;50.106;8.580;2023-08-12T12:55:54;4.63;;;4.23;;
11245;SDS011;59870;50.106;8.580;2023-08-12T12:58:24;4.20;;;3.90;;
11245;SDS011;59870;50.106;8.580;2023-08-12T13:00:52;4.13;;;3.83;;
11245;SDS011;59870;50.106;8.580;2023-08-12T13:03:19;4.23;;;3.97;;
11245;SDS011;59870;50.106;8.580;2023-08-12T13:05:50;3.57;;;3.37;;
11245;SDS011;59870;50.106;8.580;2023-08-12T13:08:18;4.00;;;3.53;;
11245;SDS011;59870;50.106;8.580;2023-08-12T13:10:46;4.27;;;4.07;;
11245;SDS011;59870;50.106;8.580;2023-08-12T13:13:14;3.27;;;3.03;;
11245;SDS011;59870;50.106;8.580;2023-08-12T13:15:45;3.53;;;3.33;;
11245;SDS011;59870;50.106;8.580;2023-08-12T13:18:14;3.90;;;3.60;;
11245;SDS011;59870;50.106;8.580;2023-08-12T13:20:42;3.47;;;3.27;;
11245;SDS011;59870;50.106;8.580;2023-08-12T13:23:11;4.07;;;3.77;;
11245;SDS011;59870;50.106;8.580;2023-08-12T13:25:41;3.30;;;3.10;;
11245;SDS011;59870;50.106;8.580;2023-08-12T13:28:09;4.23;;;3.90;;
11245;SDS011;59870;50.106;8.580;2023-08-12T13:30:36;4.33;;;3.93;;
11245;SDS011;59870;50.106;8.580;2023-08-12T13:33:04;4.43;;;4.13;;
11245;SDS011;59870;50.106;8.580;2023-08-12T13:35:32;3.53;;;3.33;;
11245;SDS011;59870;50.106;8.580;2023-08-12T13:37:59;4.40;;;4.03;;
11245;SDS011;59870;50.106;8.580;2023-08-12T13:40:27;4.33;;;3.93;;
11245;SDS011;59870;50.106;8.580;2023-08-12T13:42:55;4.17;;;3.93;;
11245;SDS011;59870;50.106;8.580;2023-08-12T13:45:24;4.40;;;4.00;;
11245;SDS011;59870;50.106;8.580;2023-08-12T13:47:52;3.50;;;3.40;;
11245;SDS011;59870;50.106;8.580;2023-08-12T13:50:23;4.13;;;3.93;;
11245;SDS011;59870;50.106;8.580;2023-08-12T13:52:50;4.43;;;3.80;;
11245;SDS011;59870;50.106;8.580;2023-08-12T13:55:21;3.90;;;3.60;;
11245;SDS011;59870;50.106;8.580;2023-08-12T13:57:48;3.70;;;3.43;;
11245;SDS011;59870;50.106;8.580;2023-08-12T14:00:16;4.07;;;3.77;;
11245;SDS011;59870;50.106;8.580;2023-08-12T14:02:44;4.07;;;3.67;;
11245;SDS011;59870;50.106;8.580;2023-08-12T14:05:12;4.33;;;3.93;;
11245;SDS011;59870;50.106;8.580;2023-08-12T14:07:42;3.75;;;3.55;;
11245;SDS011;59870;50.106;8.580;2023-08-12T14:10:09;4.53;;;3.23;;
11245;SDS011;59870;50.106;8.580;2023-08-12T14:12:40;4.27;;;3.97;;
11245;SDS011;59870;50.106;8.580;2023-08-12T14:15:08;4.28;;;3.97;;
11245;SDS011;59870;50.106;8.580;2023-08-12T14:17:36;4.27;;;3.97;;
11245;SDS011;59870;50.106;8.580;2023-08-12T14:20:05;3.97;;;3.77;;
11245;SDS011;59870;50.106;8.580;2023-08-12T14:22:35;4.03;;;3.77;;
11245;SDS011;59870;50.106;8.580;2023-08-12T14:25:03;4.30;;;3.90;;
11245;SDS011;59870;50.106;8.580;2023-08-12T14:27:32;4.43;;;4.13;;
11245;SDS011;59870;50.106;8.580;2023-08-12T14:30:00;4.37;;;4.07;;
11245;SDS011;59870;50.106;8.580;2023-08-12T14:32:28;4.45;;;4.05;;
11245;SDS011;59870;50.106;8.580;2023-08-12T14:35:00;4.33;;;4.03;;
11245;SDS011;59870;50.106;8.580;2023-08-12T14:37:28;4.80;;;4.50;;
11245;SDS011;59870;50.106;8.580;2023-08-12T14:39:55;4.47;;;4.10;;
11245;SDS011;59870;50.106;8.580;2023-08-12T14:42:23;4.07;;;3.60;;
11245;SDS011;59870;50.106;8.580;2023-08-12T14:44:54;3.80;;;3.60;;
11245;SDS011;59870;50.106;8.580;2023-08-12T14:47:21;3.90;;;3.70;;
11245;SDS011;59870;50.106;8.580;2023-08-12T14:49:49;4.20;;;4.00;;
11245;SDS011;59870;50.106;8.580;2023-08-12T14:52:20;4.35;;;4.05;;
11245;SDS011;59870;50.106;8.580;2023-08-12T14:54:47;4.10;;;3.90;;
11245;SDS011;59870;50.106;8.580;2023-08-12T14:57:15;4.23;;;4.00;;
11245;SDS011;59870;50.106;8.580;2023-08-12T14:59:43;4.17;;;3.87;;
11245;SDS011;59870;50.106;8.580;2023-08-12T15:02:11;4.18;;;3.95;;
11245;SDS011;59870;50.106;8.580;2023-08-12T15:04:38;3.90;;;3.70;;
11245;SDS011;59870;50.106;8.580;2023-08-12T15:07:06;4.67;;;4.30;;
11245;SDS011;59870;50.106;8.580;2023-08-12T15:09:34;4.37;;;4.07;;